createdAt,value
2023-11-11T00:02:05.011Z,3.75
2023-11-11T00:07:06.963Z,3.47
2023-11-11T00:12:09.418Z,6.20
2023-11-11T00:17:11.207Z,8.18
2023-11-11T00:22:13.968Z,4.38
2023-11-11T00:27:15.702Z,3.17
2023-11-11T00:32:18.583Z,2.85
2023-11-11T00:37:20.646Z,5.55
2023-11-11T00:42:23.220Z,6.28
2023-11-11T00:47:25.017Z,3.33
2023-11-11T00:52:26.709Z,4.72
2023-11-11T00:57:28.537Z,4.38
2023-11-11T01:02:30.256Z,5.13
2023-11-11T01:07:32.105Z,4.82
2023-11-11T01:12:33.925Z,4.45
2023-11-11T01:17:37.399Z,3.25
2023-11-11T01:22:39.551Z,5.63
2023-11-11T01:27:41.310Z,4.82
2023-11-11T01:32:43.089Z,3.65
2023-11-11T01:37:44.973Z,3.60
2023-11-11T01:42:47.103Z,2.03
2023-11-11T01:47:48.922Z,5.72
2023-11-11T01:52:52.185Z,5.32
2023-11-11T01:57:54.063Z,5.45
2023-11-11T02:02:58.219Z,3.13
2023-11-11T02:08:02.499Z,3.45
2023-11-11T02:13:04.506Z,3.75
2023-11-11T02:18:08.956Z,4.72
2023-11-11T02:23:10.834Z,1.75
2023-11-11T02:28:12.497Z,3.00
2023-11-11T02:33:14.331Z,5.70
2023-11-11T02:38:16.119Z,5.80
2023-11-11T02:43:17.883Z,3.15
2023-11-11T02:48:19.621Z,10.68
2023-11-11T02:53:22.072Z,7.25
2023-11-11T02:58:23.822Z,3.35
2023-11-11T03:03:27.039Z,2.85
2023-11-11T03:08:28.851Z,4.57
2023-11-11T03:13:30.826Z,2.65
2023-11-11T03:18:32.644Z,1.65
2023-11-11T03:23:34.828Z,8.88
2023-11-11T03:28:38.909Z,2.30
2023-11-11T03:33:40.583Z,1.58
2023-11-11T03:38:45.041Z,3.55
2023-11-11T03:43:46.805Z,1.48
2023-11-11T03:48:48.562Z,5.00
2023-11-11T03:53:50.987Z,1.95
2023-11-11T03:58:52.861Z,4.15
2023-11-11T04:03:54.663Z,2.53
2023-11-11T04:08:56.491Z,8.10
2023-11-11T04:14:01.089Z,5.18
2023-11-11T04:19:04.850Z,4.85
2023-11-11T04:24:07.236Z,6.65
2023-11-11T04:29:12.603Z,5.50
2023-11-11T04:34:14.974Z,5.43
2023-11-11T04:39:17.911Z,6.90
2023-11-11T04:44:19.771Z,6.32
2023-11-11T04:49:22.066Z,4.75
2023-11-11T04:54:23.727Z,5.15
2023-11-11T04:59:25.422Z,2.42
2023-11-11T05:04:27.326Z,7.22
2023-11-11T05:09:29.214Z,5.72
2023-11-11T05:14:31.502Z,6.25
2023-11-11T05:19:33.128Z,5.63
2023-11-11T05:24:34.841Z,7.95
2023-11-11T05:29:38.710Z,7.30
2023-11-11T05:34:40.551Z,5.57
2023-11-11T05:39:48.352Z,6.97
2023-11-11T05:44:50.598Z,4.05
2023-11-11T05:49:52.333Z,3.72
2023-11-11T05:54:55.699Z,3.67
2023-11-11T05:59:57.561Z,4.40
2023-11-11T06:04:59.376Z,5.18
2023-11-11T06:10:01.549Z,3.97
2023-11-11T06:15:07.087Z,3.72
2023-11-11T06:20:09.481Z,3.83
2023-11-11T06:25:11.654Z,4.43
2023-11-11T06:30:13.858Z,4.15
2023-11-11T06:35:18.146Z,3.75
2023-11-11T06:40:19.878Z,5.35
2023-11-11T06:45:21.686Z,4.38
2023-11-11T06:50:24.833Z,5.25
2023-11-11T06:55:29.074Z,6.47
2023-11-11T07:00:33.155Z,6.97
2023-11-11T07:05:35.359Z,3.50
2023-11-11T07:10:38.742Z,7.53
2023-11-11T07:15:42.823Z,3.92
2023-11-11T07:20:44.524Z,3.33
2023-11-11T07:25:47.464Z,3.67
2023-11-11T07:30:50.042Z,2.50
2023-11-11T07:35:54.255Z,4.07
2023-11-11T07:40:55.946Z,1.80
2023-11-11T07:45:57.826Z,2.08
2023-11-11T07:50:59.551Z,4.03
2023-11-11T07:56:04.265Z,5.50
2023-11-11T08:01:07.638Z,4.50
2023-11-11T08:06:11.479Z,3.35
2023-11-11T08:11:15.884Z,1.95
2023-11-11T08:16:19.982Z,3.15
2023-11-11T08:21:30.722Z,1.52
2023-11-11T08:26:32.569Z,5.05
2023-11-11T08:31:34.317Z,1.88
2023-11-11T08:36:48.511Z,4.45
2023-11-11T08:41:55.639Z,2.95
2023-11-11T08:46:57.410Z,4.22
2023-11-11T08:52:01.093Z,2.53
2023-11-11T08:57:03.032Z,3.70
2023-11-11T09:02:05.280Z,4.30
2023-11-11T09:07:08.651Z,3.40
2023-11-11T09:12:10.487Z,4.70
2023-11-11T09:17:13.611Z,3.00
2023-11-11T09:22:15.992Z,2.45
2023-11-11T09:27:17.722Z,4.03
2023-11-11T09:32:19.410Z,5.35
2023-11-11T09:37:21.230Z,4.20
2023-11-11T09:42:23.101Z,3.53
2023-11-11T09:47:28.751Z,3.30
2023-11-11T09:52:33.631Z,2.35
2023-11-11T09:57:38.394Z,3.88
2023-11-11T10:02:41.581Z,3.60
2023-11-11T10:07:43.932Z,3.00
2023-11-11T10:12:45.790Z,2.42
2023-11-11T10:17:47.644Z,2.45
2023-11-11T10:22:50.415Z,3.42
2023-11-11T10:27:56.445Z,2.35
2023-11-11T10:32:59.916Z,2.05
2023-11-11T10:38:01.877Z,4.55
2023-11-11T10:43:05.575Z,3.65
2023-11-11T10:48:10.847Z,2.97
2023-11-11T10:53:14.029Z,6.50
2023-11-11T10:58:18.346Z,4.18
2023-11-11T11:03:22.374Z,3.90
2023-11-11T11:08:51.537Z,5.22
2023-11-11T11:14:00.497Z,6.45
2023-11-11T11:19:02.129Z,5.00
2023-11-11T11:24:10.719Z,3.53
2023-11-11T11:29:17.822Z,3.92
2023-11-11T11:34:19.535Z,4.53
2023-11-11T11:39:28.478Z,5.43
2023-11-11T11:44:32.312Z,3.00
2023-11-11T11:49:35.976Z,3.10
2023-11-11T11:54:37.744Z,5.85
2023-11-11T11:59:39.516Z,4.32
2023-11-11T12:04:41.744Z,4.55
2023-11-11T12:09:43.658Z,3.08
2023-11-11T12:14:51.359Z,7.53
2023-11-11T12:19:55.414Z,3.75
2023-11-11T12:24:57.286Z,4.43
2023-11-11T12:29:59.091Z,3.83
2023-11-11T12:35:01.067Z,4.35
2023-11-11T12:40:02.814Z,2.15
2023-11-11T12:45:05.397Z,2.05
2023-11-11T12:50:09.555Z,3.55
2023-11-11T12:55:23.392Z,1.27
2023-11-11T13:00:25.477Z,2.85
2023-11-11T13:05:27.154Z,4.47
2023-11-11T13:10:29.257Z,1.58
2023-11-11T13:15:30.918Z,3.15
2023-11-11T13:20:32.625Z,4.88
2023-11-11T13:25:34.719Z,5.93
2023-11-11T13:30:40.323Z,2.90
2023-11-11T13:35:47.548Z,2.10
2023-11-11T13:40:50.624Z,2.90
2023-11-11T13:45:52.933Z,7.65
2023-11-11T13:50:55.416Z,3.60
2023-11-11T13:56:01.654Z,1.58
2023-11-11T14:01:09.654Z,6.60
2023-11-11T14:06:12.140Z,6.43
2023-11-11T14:11:13.917Z,1.65
2023-11-11T14:16:15.931Z,5.13
2023-11-11T14:21:18.073Z,3.45
2023-11-11T14:26:19.753Z,2.22
2023-11-11T14:31:25.014Z,5.53
2023-11-11T14:36:28.241Z,4.00
2023-11-11T14:41:31.856Z,1.85
2023-11-11T14:46:36.493Z,2.55
2023-11-11T14:51:40.089Z,2.33
2023-11-11T14:56:41.974Z,4.78
2023-11-11T15:01:43.776Z,3.30
2023-11-11T15:06:45.569Z,2.00
2023-11-11T15:11:47.387Z,4.97
2023-11-11T15:16:49.194Z,1.75
2023-11-11T15:21:51.786Z,6.13
2023-11-11T15:26:55.989Z,4.28
2023-11-11T15:31:59.848Z,3.70
2023-11-11T15:37:02.264Z,5.45
2023-11-11T15:42:04.303Z,8.75
2023-11-11T15:47:06.720Z,3.55
2023-11-11T15:52:11.777Z,5.30
2023-11-11T15:57:13.539Z,2.45
2023-11-11T16:02:15.447Z,2.72
2023-11-11T16:07:17.176Z,4.00
2023-11-11T16:12:19.038Z,3.10
2023-11-11T16:17:27.396Z,2.60
2023-11-11T16:22:29.587Z,3.50
2023-11-11T16:27:31.223Z,4.50
2023-11-11T16:32:32.876Z,4.38
2023-11-11T16:37:34.756Z,4.63
2023-11-11T16:42:39.832Z,8.00
2023-11-11T16:47:41.500Z,8.02
2023-11-11T16:52:43.260Z,9.32
2023-11-11T16:57:44.989Z,6.32
2023-11-11T17:02:46.722Z,4.47
2023-11-11T17:07:55.876Z,3.45
2023-11-11T17:12:57.768Z,7.15
2023-11-11T17:17:59.473Z,7.22
2023-11-11T17:23:01.358Z,13.25
2023-11-11T17:28:03.592Z,8.07
2023-11-11T17:33:09.634Z,22.67
2023-11-11T17:38:17.303Z,11.68
2023-11-11T17:43:19.822Z,9.20
2023-11-11T17:48:25.275Z,9.07
2023-11-11T17:53:27.802Z,11.73
2023-11-11T17:58:29.700Z,10.20
2023-11-11T18:03:34.300Z,10.75
2023-11-11T18:08:36.944Z,8.43
2023-11-11T18:13:42.780Z,7.78
2023-11-11T18:18:45.503Z,8.55
2023-11-11T18:23:47.318Z,9.63
2023-11-11T18:28:51.455Z,12.15
2023-11-11T18:33:55.393Z,7.93
2023-11-11T18:38:57.294Z,10.30
2023-11-11T18:43:59.478Z,10.93
2023-11-11T18:49:01.505Z,9.93
2023-11-11T18:54:03.312Z,10.15
2023-11-11T18:59:05.073Z,10.27
2023-11-11T19:04:10.083Z,6.10
2023-11-11T19:09:12.366Z,8.23
2023-11-11T19:14:14.300Z,8.25
2023-11-11T19:19:16.149Z,10.82
2023-11-11T19:24:17.927Z,11.20
2023-11-11T19:29:20.587Z,8.77
2023-11-11T19:34:22.405Z,20.42
2023-11-11T19:39:25.048Z,22.45
2023-11-11T19:44:26.930Z,8.70
2023-11-11T19:49:28.833Z,13.57
2023-11-11T19:54:30.644Z,19.00
2023-11-11T19:59:33.983Z,21.35
2023-11-11T20:04:37.272Z,17.45
2023-11-11T20:09:42.078Z,28.80
2023-11-11T20:14:44.686Z,30.73
2023-11-11T20:19:46.389Z,28.95
2023-11-11T20:24:49.544Z,26.75
2023-11-11T20:29:53.291Z,29.20
2023-11-11T20:34:55.017Z,34.15
2023-11-11T20:39:56.751Z,26.60
2023-11-11T20:44:58.910Z,26.35
2023-11-11T20:50:01.159Z,36.40
2023-11-11T20:55:03.132Z,30.95
2023-11-11T21:00:07.197Z,22.67
2023-11-11T21:05:15.486Z,24.00
2023-11-11T21:10:18.362Z,36.90
2023-11-11T21:15:20.596Z,43.60
2023-11-11T21:20:22.413Z,35.17
2023-11-11T21:25:24.392Z,41.05
2023-11-11T21:30:26.140Z,21.42
2023-11-11T21:35:27.883Z,18.67
2023-11-11T21:40:29.793Z,32.15
2023-11-11T21:45:31.538Z,31.95
2023-11-11T21:50:33.251Z,26.35
2023-11-11T21:55:35.004Z,22.92
2023-11-11T22:00:36.682Z,23.60
2023-11-11T22:05:40.608Z,30.55
2023-11-11T22:10:42.719Z,19.73
2023-11-11T22:15:44.973Z,16.88
2023-11-11T22:20:51.057Z,46.83
2023-11-11T22:25:52.771Z,21.98
2023-11-11T22:30:55.217Z,32.25
2023-11-11T22:35:56.858Z,26.20
2023-11-11T22:40:58.568Z,28.52
2023-11-11T22:46:10.278Z,23.95
2023-11-11T22:51:12.099Z,25.88
2023-11-11T22:56:13.862Z,25.05
2023-11-11T23:01:15.657Z,25.48
2023-11-11T23:06:20.325Z,29.27
2023-11-11T23:11:22.036Z,15.93
2023-11-11T23:16:25.020Z,12.15
2023-11-11T23:21:27.358Z,20.70
2023-11-11T23:26:29.680Z,12.55
2023-11-11T23:31:31.413Z,20.75
2023-11-11T23:36:33.218Z,23.65
2023-11-11T23:41:36.304Z,15.20
2023-11-11T23:46:41.155Z,13.75
2023-11-11T23:51:49.454Z,15.30
2023-11-11T23:56:51.806Z,12.80
